SBCJ Informações do Aeroporto

Informações da Pista
Pista 10 Comprimento 6562 ft Largura 148 ft
Elevação 0 ft Limite 0 ft Heading 0
Pista 28 Comprimento 6562 ft Largura 148 ft
Elevação 0 ft Limite 0 ft Heading 0
Frequências do Aeroporto
Tipo AFIS Nome RDO Frequência 131.7 MHZ
Navaids do Aeroporto
Tipo VOR-DME Nome Carajas Frequência 112400 KHZ
Tipo NDB Nome Carajas Frequência 170 KHZ
Informações meteorológicas do aeroporto e NOTAM
ADDS - METARS form results

(1104 UTC 22 August 2019)
Data provider http://aviationweather.gov/metar/data/
 
METAR text: SBCJ 221100Z 04004KT 7000 SCT030 24/20 Q1019
Conditions at: SBCJ (CARAJAS/MARABA , BR) observed 1100 UTC 22 August 2019
Temperature: 24.0°C (75°F)
Dewpoint: 20.0°C (68°F) [RH = 78%]
Pressure (altimeter): 30.09 inches Hg (1019.0 mb)
Winds: from the NE (40 degrees) at 5 MPH (4 knots; 2.1 m/s)
Visibility: 4 miles ( 7 km)
Ceiling: at least 12,000 feet AGL
Clouds: scattered clouds at 3000 feet AGL
Weather: no significant weather observed at this time

METAR text: SBCJ 221015Z 00000KT CAVOK 23/19 Q1018
Conditions at: SBCJ (CARAJAS/MARABA , BR) observed 1015 UTC 22 August 2019
Temperature: 23.0°C (73°F)
Dewpoint: 19.0°C (66°F) [RH = 78%]
Pressure (altimeter): 30.06 inches Hg (1018.0 mb)
Winds: calm
Visibility: 6 or more miles (10+ km)
Ceiling: ceiling and visibility are OK
Clouds: unknown
Weather: no significant weather observed at this time

Forecast for: SBCJ (CARAJAS/MARABA , BR)
Text: TAF SBCJ 220900Z 2212/2224 06005KT CAVOK TN26/2212Z TX31/2218Z
Forecast period: 1200 to 1700 UTC 22 August 2019
Forecast type: FROM: standard forecast or significant change
Winds: from the ENE (60 degrees) at 6 MPH (5 knots; 2.6 m/s)
Visibility: 6 or more miles 10+ km)
Ceiling: unknown
Clouds: missing
Weather: no significant weather forecast for this period
Text: BECMG 2217/2218 08005KT FEW030
Forecast period: 1700 to 2200 UTC 22 August 2019
Forecast type: BECOMING: Conditions expected to become as follows by 1800 UTC 22 August 2019
Winds: from the E (80 degrees) at 6 MPH (5 knots; 2.6 m/s)
Visibility: 6 or more miles 10+ km)
Ceiling: at least 12,000 feet AGL
Clouds: few clouds at 3000 feet AGL
Weather: no significant weather forecast for this period
Text: BECMG 2222/2224 00000KT RMK PGZ
Forecast period: 2200 UTC 22 August 2019 to 0000 UTC 23 August 2019
Forecast type: BECOMING: Conditions expected to become as follows by 0000 UTC 23 August 2019
Winds: calm
Visibility: 6 or more miles 10+ km)
Ceiling: at least 12,000 feet AGL
Clouds: few clouds at 3000 feet AGL
Weather: no significant weather forecast for this period